sensor_id;sensor_type;location;lat;lon;timestamp;P1;P2;P0
77892;PMS5003;67087;50.094;14.338;2023-05-02T00:00:56;10;10;
77892;PMS5003;67087;50.094;14.338;2023-05-02T00:03:21;8;8;
77892;PMS5003;67087;50.094;14.338;2023-05-02T00:05:46;10;10;
77892;PMS5003;67087;50.094;14.338;2023-05-02T00:08:12;7;7;
77892;PMS5003;67087;50.094;14.338;2023-05-02T00:10:37;7;7;
77892;PMS5003;67087;50.094;14.338;2023-05-02T00:13:02;8;8;
77892;PMS5003;67087;50.094;14.338;2023-05-02T00:15:27;8;8;
77892;PMS5003;67087;50.094;14.338;2023-05-02T00:17:52;8;8;
77892;PMS5003;67087;50.094;14.338;2023-05-02T00:20:17;7;7;
77892;PMS5003;67087;50.094;14.338;2023-05-02T00:22:42;7;7;
77892;PMS5003;67087;50.094;14.338;2023-05-02T00:25:08;7;7;
77892;PMS5003;67087;50.094;14.338;2023-05-02T00:27:33;9;8;
77892;PMS5003;67087;50.094;14.338;2023-05-02T00:29:58;9;9;
77892;PMS5003;67087;50.094;14.338;2023-05-02T00:32:23;8;8;
77892;PMS5003;67087;50.094;14.338;2023-05-02T00:34:48;7;7;
77892;PMS5003;67087;50.094;14.338;2023-05-02T00:37:13;8;8;
77892;PMS5003;67087;50.094;14.338;2023-05-02T00:39:38;8;8;
77892;PMS5003;67087;50.094;14.338;2023-05-02T00:42:03;8;8;
77892;PMS5003;67087;50.094;14.338;2023-05-02T00:44:29;7;6;
77892;PMS5003;67087;50.094;14.338;2023-05-02T00:46:54;8;8;
77892;PMS5003;67087;50.094;14.338;2023-05-02T00:49:19;8;8;
77892;PMS5003;67087;50.094;14.338;2023-05-02T00:51:45;7;7;
77892;PMS5003;67087;50.094;14.338;2023-05-02T00:54:10;8;8;
77892;PMS5003;67087;50.094;14.338;2023-05-02T00:56:35;7;7;
77892;PMS5003;67087;50.094;14.338;2023-05-02T00:59:00;8;7;
77892;PMS5003;67087;50.094;14.338;2023-05-02T01:01:28;9;8;
77892;PMS5003;67087;50.094;14.338;2023-05-02T01:03:54;7;6;
77892;PMS5003;67087;50.094;14.338;2023-05-02T01:06:20;7;7;
77892;PMS5003;67087;50.094;14.338;2023-05-02T01:08:42;7;7;
77892;PMS5003;67087;50.094;14.338;2023-05-02T01:11:09;6;6;
77892;PMS5003;67087;50.094;14.338;2023-05-02T01:13:32;7;7;
77892;PMS5003;67087;50.094;14.338;2023-05-02T01:15:56;5;5;
77892;PMS5003;67087;50.094;14.338;2023-05-02T01:18:22;7;7;
77892;PMS5003;67087;50.094;14.338;2023-05-02T01:20:47;8;8;
77892;PMS5003;67087;50.094;14.338;2023-05-02T01:23:13;7;7;
77892;PMS5003;67087;50.094;14.338;2023-05-02T01:25:39;6;6;
77892;PMS5003;67087;50.094;14.338;2023-05-02T01:28:08;9;9;
77892;PMS5003;67087;50.094;14.338;2023-05-02T01:30:27;7;7;
77892;PMS5003;67087;50.094;14.338;2023-05-02T01:32:52;8;7;
77892;PMS5003;67087;50.094;14.338;2023-05-02T01:35:17;7;7;
77892;PMS5003;67087;50.094;14.338;2023-05-02T01:37:42;7;7;
77892;PMS5003;67087;50.094;14.338;2023-05-02T01:40:08;8;8;
77892;PMS5003;67087;50.094;14.338;2023-05-02T01:42:33;9;8;
77892;PMS5003;67087;50.094;14.338;2023-05-02T01:44:58;6;6;
77892;PMS5003;67087;50.094;14.338;2023-05-02T01:47:23;8;8;
77892;PMS5003;67087;50.094;14.338;2023-05-02T01:49:48;8;7;
77892;PMS5003;67087;50.094;14.338;2023-05-02T01:52:13;7;7;
77892;PMS5003;67087;50.094;14.338;2023-05-02T01:54:39;7;7;
77892;PMS5003;67087;50.094;14.338;2023-05-02T01:57:04;6;6;
77892;PMS5003;67087;50.094;14.338;2023-05-02T01:59:29;9;9;
77892;PMS5003;67087;50.094;14.338;2023-05-02T02:01:54;9;9;
77892;PMS5003;67087;50.094;14.338;2023-05-02T02:04:19;6;5;
77892;PMS5003;67087;50.094;14.338;2023-05-02T02:06:44;6;6;
77892;PMS5003;67087;50.094;14.338;2023-05-02T02:09:09;6;6;
77892;PMS5003;67087;50.094;14.338;2023-05-02T02:11:35;7;7;
77892;PMS5003;67087;50.094;14.338;2023-05-02T02:14:00;6;6;
77892;PMS5003;67087;50.094;14.338;2023-05-02T02:16:27;8;8;
77892;PMS5003;67087;50.094;14.338;2023-05-02T02:18:50;7;7;
77892;PMS5003;67087;50.094;14.338;2023-05-02T02:21:15;8;7;
77892;PMS5003;67087;50.094;14.338;2023-05-02T02:23:40;6;6;
77892;PMS5003;67087;50.094;14.338;2023-05-02T02:26:05;6;6;
77892;PMS5003;67087;50.094;14.338;2023-05-02T02:28:30;7;6;
77892;PMS5003;67087;50.094;14.338;2023-05-02T02:30:55;7;7;
77892;PMS5003;67087;50.094;14.338;2023-05-02T02:33:21;7;7;
77892;PMS5003;67087;50.094;14.338;2023-05-02T02:35:47;11;9;
77892;PMS5003;67087;50.094;14.338;2023-05-02T02:38:13;6;6;
77892;PMS5003;67087;50.094;14.338;2023-05-02T02:40:39;6;6;
77892;PMS5003;67087;50.094;14.338;2023-05-02T02:43:03;7;7;
77892;PMS5003;67087;50.094;14.338;2023-05-02T02:45:29;7;7;
77892;PMS5003;67087;50.094;14.338;2023-05-02T02:47:55;7;7;
77892;PMS5003;67087;50.094;14.338;2023-05-02T02:50:19;7;6;
77892;PMS5003;67087;50.094;14.338;2023-05-02T02:52:47;8;7;
77892;PMS5003;67087;50.094;14.338;2023-05-02T02:55:09;6;6;
77892;PMS5003;67087;50.094;14.338;2023-05-02T02:57:35;6;6;
77892;PMS5003;67087;50.094;14.338;2023-05-02T03:00:00;6;6;
77892;PMS5003;67087;50.094;14.338;2023-05-02T03:02:25;7;6;
77892;PMS5003;67087;50.094;14.338;2023-05-02T03:04:48;5;5;
77892;PMS5003;67087;50.094;14.338;2023-05-02T03:07:13;7;7;
77892;PMS5003;67087;50.094;14.338;2023-05-02T03:09:39;7;7;
77892;PMS5003;67087;50.094;14.338;2023-05-02T03:12:04;6;6;
77892;PMS5003;67087;50.094;14.338;2023-05-02T03:14:29;5;5;
77892;PMS5003;67087;50.094;14.338;2023-05-02T03:16:54;7;7;
77892;PMS5003;67087;50.094;14.338;2023-05-02T03:19:19;8;8;
77892;PMS5003;67087;50.094;14.338;2023-05-02T03:21:45;8;7;
77892;PMS5003;67087;50.094;14.338;2023-05-02T03:24:10;7;7;
77892;PMS5003;67087;50.094;14.338;2023-05-02T03:26:35;6;6;
77892;PMS5003;67087;50.094;14.338;2023-05-02T03:29:01;6;6;
77892;PMS5003;67087;50.094;14.338;2023-05-02T03:31:26;7;7;
77892;PMS5003;67087;50.094;14.338;2023-05-02T03:33:51;7;7;
77892;PMS5003;67087;50.094;14.338;2023-05-02T03:36:16;7;7;
77892;PMS5003;67087;50.094;14.338;2023-05-02T03:38:41;7;7;
77892;PMS5003;67087;50.094;14.338;2023-05-02T03:41:06;7;7;
77892;PMS5003;67087;50.094;14.338;2023-05-02T03:43:31;6;6;
77892;PMS5003;67087;50.094;14.338;2023-05-02T03:45:57;6;6;
77892;PMS5003;67087;50.094;14.338;2023-05-02T03:48:22;8;7;
77892;PMS5003;67087;50.094;14.338;2023-05-02T03:50:47;6;6;
77892;PMS5003;67087;50.094;14.338;2023-05-02T03:53:12;7;7;
77892;PMS5003;67087;50.094;14.338;2023-05-02T03:55:38;9;8;
77892;PMS5003;67087;50.094;14.338;2023-05-02T03:58:03;9;9;
77892;PMS5003;67087;50.094;14.338;2023-05-02T04:00:28;7;6;
77892;PMS5003;67087;50.094;14.338;2023-05-02T04:02:53;7;7;
77892;PMS5003;67087;50.094;14.338;2023-05-02T04:05:18;7;7;
77892;PMS5003;67087;50.094;14.338;2023-05-02T04:07:43;6;5;
77892;PMS5003;67087;50.094;14.338;2023-05-02T04:10:08;6;6;
77892;PMS5003;67087;50.094;14.338;2023-05-02T04:12:33;7;7;
77892;PMS5003;67087;50.094;14.338;2023-05-02T04:14:58;6;6;
77892;PMS5003;67087;50.094;14.338;2023-05-02T04:17:23;8;8;
77892;PMS5003;67087;50.094;14.338;2023-05-02T04:19:49;8;7;
77892;PMS5003;67087;50.094;14.338;2023-05-02T04:22:14;6;6;
77892;PMS5003;67087;50.094;14.338;2023-05-02T04:24:39;7;6;
77892;PMS5003;67087;50.094;14.338;2023-05-02T04:27:04;6;6;
77892;PMS5003;67087;50.094;14.338;2023-05-02T04:29:29;8;8;
77892;PMS5003;67087;50.094;14.338;2023-05-02T04:31:55;8;8;
77892;PMS5003;67087;50.094;14.338;2023-05-02T04:34:20;8;8;
77892;PMS5003;67087;50.094;14.338;2023-05-02T04:36:45;8;8;
77892;PMS5003;67087;50.094;14.338;2023-05-02T04:39:10;7;6;
77892;PMS5003;67087;50.094;14.338;2023-05-02T04:41:35;7;7;
77892;PMS5003;67087;50.094;14.338;2023-05-02T04:44:00;8;8;
77892;PMS5003;67087;50.094;14.338;2023-05-02T04:46:26;9;9;
77892;PMS5003;67087;50.094;14.338;2023-05-02T04:48:51;6;6;
77892;PMS5003;67087;50.094;14.338;2023-05-02T04:51:16;7;7;
77892;PMS5003;67087;50.094;14.338;2023-05-02T04:53:41;6;6;
77892;PMS5003;67087;50.094;14.338;2023-05-02T04:56:06;7;7;
77892;PMS5003;67087;50.094;14.338;2023-05-02T04:58:32;5;5;
77892;PMS5003;67087;50.094;14.338;2023-05-02T05:00:57;9;9;
77892;PMS5003;67087;50.094;14.338;2023-05-02T05:03:22;8;7;
77892;PMS5003;67087;50.094;14.338;2023-05-02T05:05:47;8;8;
77892;PMS5003;67087;50.094;14.338;2023-05-02T05:08:13;5;5;
77892;PMS5003;67087;50.094;14.338;2023-05-02T05:10:38;11;10;
77892;PMS5003;67087;50.094;14.338;2023-05-02T05:13:03;8;8;
77892;PMS5003;67087;50.094;14.338;2023-05-02T05:15:29;8;7;
77892;PMS5003;67087;50.094;14.338;2023-05-02T05:17:54;6;6;
77892;PMS5003;67087;50.094;14.338;2023-05-02T05:20:19;6;6;
77892;PMS5003;67087;50.094;14.338;2023-05-02T05:22:45;10;8;
77892;PMS5003;67087;50.094;14.338;2023-05-02T05:25:10;9;8;
77892;PMS5003;67087;50.094;14.338;2023-05-02T05:27:35;9;7;
77892;PMS5003;67087;50.094;14.338;2023-05-02T05:30:00;9;9;
77892;PMS5003;67087;50.094;14.338;2023-05-02T05:32:25;6;6;
77892;PMS5003;67087;50.094;14.338;2023-05-02T05:34:50;7;7;
77892;PMS5003;67087;50.094;14.338;2023-05-02T05:37:15;5;5;
77892;PMS5003;67087;50.094;14.338;2023-05-02T05:39:41;10;10;
77892;PMS5003;67087;50.094;14.338;2023-05-02T05:42:06;10;9;
77892;PMS5003;67087;50.094;14.338;2023-05-02T05:44:31;10;10;
77892;PMS5003;67087;50.094;14.338;2023-05-02T05:46:56;12;12;
77892;PMS5003;67087;50.094;14.338;2023-05-02T05:49:21;14;14;
77892;PMS5003;67087;50.094;14.338;2023-05-02T05:51:47;13;13;
77892;PMS5003;67087;50.094;14.338;2023-05-02T05:54:12;13;12;
77892;PMS5003;67087;50.094;14.338;2023-05-02T05:56:37;13;13;
77892;PMS5003;67087;50.094;14.338;2023-05-02T05:59:02;13;13;
77892;PMS5003;67087;50.094;14.338;2023-05-02T06:01:28;12;12;
77892;PMS5003;67087;50.094;14.338;2023-05-02T06:03:53;10;10;
77892;PMS5003;67087;50.094;14.338;2023-05-02T06:06:19;14;12;
77892;PMS5003;67087;50.094;14.338;2023-05-02T06:08:44;14;14;
77892;PMS5003;67087;50.094;14.338;2023-05-02T06:11:09;15;15;
77892;PMS5003;67087;50.094;14.338;2023-05-02T06:13:34;17;16;
77892;PMS5003;67087;50.094;14.338;2023-05-02T06:15:59;14;13;
77892;PMS5003;67087;50.094;14.338;2023-05-02T06:18:24;16;16;
77892;PMS5003;67087;50.094;14.338;2023-05-02T06:20:50;15;14;
77892;PMS5003;67087;50.094;14.338;2023-05-02T06:23:16;16;16;
77892;PMS5003;67087;50.094;14.338;2023-05-02T06:25:42;17;17;
77892;PMS5003;67087;50.094;14.338;2023-05-02T06:28:07;14;13;
77892;PMS5003;67087;50.094;14.338;2023-05-02T06:30:33;13;12;
77892;PMS5003;67087;50.094;14.338;2023-05-02T06:32:58;16;16;
77892;PMS5003;67087;50.094;14.338;2023-05-02T06:35:24;13;13;
77892;PMS5003;67087;50.094;14.338;2023-05-02T06:37:49;17;16;
77892;PMS5003;67087;50.094;14.338;2023-05-02T06:40:15;12;12;
77892;PMS5003;67087;50.094;14.338;2023-05-02T06:42:40;17;15;
77892;PMS5003;67087;50.094;14.338;2023-05-02T06:45:07;15;14;
77892;PMS5003;67087;50.094;14.338;2023-05-02T06:47:31;13;13;
77892;PMS5003;67087;50.094;14.338;2023-05-02T06:49:56;14;14;
77892;PMS5003;67087;50.094;14.338;2023-05-02T06:52:22;12;12;
77892;PMS5003;67087;50.094;14.338;2023-05-02T06:54:47;15;13;
77892;PMS5003;67087;50.094;14.338;2023-05-02T06:57:12;15;15;
77892;PMS5003;67087;50.094;14.338;2023-05-02T06:59:37;15;14;
77892;PMS5003;67087;50.094;14.338;2023-05-02T07:02:02;17;16;
77892;PMS5003;67087;50.094;14.338;2023-05-02T07:04:27;18;17;
77892;PMS5003;67087;50.094;14.338;2023-05-02T07:06:53;16;16;
77892;PMS5003;67087;50.094;14.338;2023-05-02T07:09:18;14;14;
77892;PMS5003;67087;50.094;14.338;2023-05-02T07:11:43;13;13;
77892;PMS5003;67087;50.094;14.338;2023-05-02T07:14:09;14;13;
77892;PMS5003;67087;50.094;14.338;2023-05-02T07:16:34;14;13;
77892;PMS5003;67087;50.094;14.338;2023-05-02T07:18:59;14;14;
77892;PMS5003;67087;50.094;14.338;2023-05-02T07:21:25;16;15;
77892;PMS5003;67087;50.094;14.338;2023-05-02T07:23:50;13;12;
77892;PMS5003;67087;50.094;14.338;2023-05-02T07:26:15;16;16;
77892;PMS5003;67087;50.094;14.338;2023-05-02T07:28:40;14;14;
77892;PMS5003;67087;50.094;14.338;2023-05-02T07:31:05;13;13;
77892;PMS5003;67087;50.094;14.338;2023-05-02T07:33:30;14;14;
77892;PMS5003;67087;50.094;14.338;2023-05-02T07:35:55;17;16;
77892;PMS5003;67087;50.094;14.338;2023-05-02T07:38:21;16;15;
77892;PMS5003;67087;50.094;14.338;2023-05-02T07:40:46;17;17;
77892;PMS5003;67087;50.094;14.338;2023-05-02T07:43:11;14;14;
77892;PMS5003;67087;50.094;14.338;2023-05-02T07:45:37;15;15;
77892;PMS5003;67087;50.094;14.338;2023-05-02T07:48:02;14;13;
77892;PMS5003;67087;50.094;14.338;2023-05-02T07:50:27;16;15;
77892;PMS5003;67087;50.094;14.338;2023-05-02T07:52:53;14;14;
77892;PMS5003;67087;50.094;14.338;2023-05-02T07:55:18;13;13;
77892;PMS5003;67087;50.094;14.338;2023-05-02T07:57:44;14;13;
77892;PMS5003;67087;50.094;14.338;2023-05-02T08:00:09;16;14;
77892;PMS5003;67087;50.094;14.338;2023-05-02T08:02:34;14;14;
77892;PMS5003;67087;50.094;14.338;2023-05-02T08:04:59;15;15;
77892;PMS5003;67087;50.094;14.338;2023-05-02T08:07:25;18;18;
77892;PMS5003;67087;50.094;14.338;2023-05-02T08:09:50;14;13;
77892;PMS5003;67087;50.094;14.338;2023-05-02T08:12:15;15;15;
77892;PMS5003;67087;50.094;14.338;2023-05-02T08:14:40;14;14;
77892;PMS5003;67087;50.094;14.338;2023-05-02T08:17:05;14;14;
77892;PMS5003;67087;50.094;14.338;2023-05-02T08:19:30;13;13;
77892;PMS5003;67087;50.094;14.338;2023-05-02T08:21:56;14;14;
77892;PMS5003;67087;50.094;14.338;2023-05-02T08:24:21;16;16;
77892;PMS5003;67087;50.094;14.338;2023-05-02T08:26:46;15;14;
77892;PMS5003;67087;50.094;14.338;2023-05-02T08:29:12;16;15;
77892;PMS5003;67087;50.094;14.338;2023-05-02T08:31:38;15;15;
77892;PMS5003;67087;50.094;14.338;2023-05-02T08:34:04;14;14;
77892;PMS5003;67087;50.094;14.338;2023-05-02T08:36:28;14;14;
77892;PMS5003;67087;50.094;14.338;2023-05-02T08:38:54;14;14;
77892;PMS5003;67087;50.094;14.338;2023-05-02T08:41:19;16;15;
77892;PMS5003;67087;50.094;14.338;2023-05-02T08:43:44;14;13;
77892;PMS5003;67087;50.094;14.338;2023-05-02T08:46:11;13;13;
77892;PMS5003;67087;50.094;14.338;2023-05-02T08:48:35;11;11;
77892;PMS5003;67087;50.094;14.338;2023-05-02T08:51:00;17;16;
77892;PMS5003;67087;50.094;14.338;2023-05-02T08:53:25;12;12;
77892;PMS5003;67087;50.094;14.338;2023-05-02T08:55:51;14;14;
77892;PMS5003;67087;50.094;14.338;2023-05-02T08:58:16;16;16;
77892;PMS5003;67087;50.094;14.338;2023-05-02T09:00:42;14;14;
77892;PMS5003;67087;50.094;14.338;2023-05-02T09:03:10;13;13;
77892;PMS5003;67087;50.094;14.338;2023-05-02T09:05:32;14;14;
77892;PMS5003;67087;50.094;14.338;2023-05-02T09:07:57;14;13;
77892;PMS5003;67087;50.094;14.338;2023-05-02T09:10:22;15;14;
77892;PMS5003;67087;50.094;14.338;2023-05-02T09:12:47;13;13;
77892;PMS5003;67087;50.094;14.338;2023-05-02T09:15:13;14;14;
77892;PMS5003;67087;50.094;14.338;2023-05-02T09:17:39;13;13;
77892;PMS5003;67087;50.094;14.338;2023-05-02T09:20:03;11;11;
77892;PMS5003;67087;50.094;14.338;2023-05-02T09:22:28;12;12;
77892;PMS5003;67087;50.094;14.338;2023-05-02T09:24:53;12;12;
77892;PMS5003;67087;50.094;14.338;2023-05-02T09:27:18;14;13;
77892;PMS5003;67087;50.094;14.338;2023-05-02T09:29:44;13;13;
77892;PMS5003;67087;50.094;14.338;2023-05-02T09:32:09;11;11;
77892;PMS5003;67087;50.094;14.338;2023-05-02T09:34:35;17;17;
77892;PMS5003;67087;50.094;14.338;2023-05-02T09:37:01;14;12;
77892;PMS5003;67087;50.094;14.338;2023-05-02T09:39:27;13;13;
77892;PMS5003;67087;50.094;14.338;2023-05-02T09:41:51;13;13;
77892;PMS5003;67087;50.094;14.338;2023-05-02T09:44:17;13;13;
77892;PMS5003;67087;50.094;14.338;2023-05-02T09:46:42;14;14;
77892;PMS5003;67087;50.094;14.338;2023-05-02T09:49:07;13;13;
77892;PMS5003;67087;50.094;14.338;2023-05-02T09:51:32;14;14;
77892;PMS5003;67087;50.094;14.338;2023-05-02T09:53:57;13;13;
77892;PMS5003;67087;50.094;14.338;2023-05-02T09:56:23;14;14;
77892;PMS5003;67087;50.094;14.338;2023-05-02T09:58:48;13;13;
77892;PMS5003;67087;50.094;14.338;2023-05-02T10:01:13;12;12;
77892;PMS5003;67087;50.094;14.338;2023-05-02T10:03:39;13;13;
77892;PMS5003;67087;50.094;14.338;2023-05-02T10:06:04;14;14;
77892;PMS5003;67087;50.094;14.338;2023-05-02T10:08:29;14;13;
77892;PMS5003;67087;50.094;14.338;2023-05-02T10:10:55;11;11;
77892;PMS5003;67087;50.094;14.338;2023-05-02T10:13:20;15;15;
77892;PMS5003;67087;50.094;14.338;2023-05-02T10:15:45;14;14;
77892;PMS5003;67087;50.094;14.338;2023-05-02T10:18:11;14;14;
77892;PMS5003;67087;50.094;14.338;2023-05-02T10:20:35;13;13;
77892;PMS5003;67087;50.094;14.338;2023-05-02T10:23:00;12;12;
77892;PMS5003;67087;50.094;14.338;2023-05-02T10:25:26;12;12;
77892;PMS5003;67087;50.094;14.338;2023-05-02T10:27:51;11;11;
77892;PMS5003;67087;50.094;14.338;2023-05-02T10:30:16;12;12;
77892;PMS5003;67087;50.094;14.338;2023-05-02T10:32:41;14;13;
77892;PMS5003;67087;50.094;14.338;2023-05-02T10:35:06;12;12;
77892;PMS5003;67087;50.094;14.338;2023-05-02T10:37:32;11;11;
77892;PMS5003;67087;50.094;14.338;2023-05-02T10:39:57;11;11;
77892;PMS5003;67087;50.094;14.338;2023-05-02T10:42:22;15;14;
77892;PMS5003;67087;50.094;14.338;2023-05-02T10:44:47;11;11;
77892;PMS5003;67087;50.094;14.338;2023-05-02T10:47:18;13;12;
77892;PMS5003;67087;50.094;14.338;2023-05-02T10:54:29;11;11;
77892;PMS5003;67087;50.094;14.338;2023-05-02T10:57:02;15;15;
77892;PMS5003;67087;50.094;14.338;2023-05-02T10:59:25;13;13;
77892;PMS5003;67087;50.094;14.338;2023-05-02T11:01:45;13;13;
77892;PMS5003;67087;50.094;14.338;2023-05-02T11:04:10;14;13;
77892;PMS5003;67087;50.094;14.338;2023-05-02T11:06:35;15;14;
77892;PMS5003;67087;50.094;14.338;2023-05-02T11:13:51;14;14;
77892;PMS5003;67087;50.094;14.338;2023-05-02T11:16:16;12;12;
77892;PMS5003;67087;50.094;14.338;2023-05-02T11:23:32;14;14;
77892;PMS5003;67087;50.094;14.338;2023-05-02T11:25:57;14;14;
77892;PMS5003;67087;50.094;14.338;2023-05-02T11:30:48;12;12;
77892;PMS5003;67087;50.094;14.338;2023-05-02T11:33:13;14;14;
77892;PMS5003;67087;50.094;14.338;2023-05-02T11:35:40;14;14;
77892;PMS5003;67087;50.094;14.338;2023-05-02T11:38:07;13;13;
77892;PMS5003;67087;50.094;14.338;2023-05-02T11:40:30;14;14;
77892;PMS5003;67087;50.094;14.338;2023-05-02T11:42:55;13;13;
77892;PMS5003;67087;50.094;14.338;2023-05-02T11:45:20;11;11;
77892;PMS5003;67087;50.094;14.338;2023-05-02T11:47:45;13;12;
77892;PMS5003;67087;50.094;14.338;2023-05-02T11:50:10;13;13;
77892;PMS5003;67087;50.094;14.338;2023-05-02T11:52:36;13;13;
77892;PMS5003;67087;50.094;14.338;2023-05-02T11:55:01;11;9;
77892;PMS5003;67087;50.094;14.338;2023-05-02T11:57:26;13;13;
77892;PMS5003;67087;50.094;14.338;2023-05-02T11:59:52;12;12;
77892;PMS5003;67087;50.094;14.338;2023-05-02T12:02:17;13;13;
77892;PMS5003;67087;50.094;14.338;2023-05-02T12:04:42;12;12;
77892;PMS5003;67087;50.094;14.338;2023-05-02T12:07:07;11;11;
77892;PMS5003;67087;50.094;14.338;2023-05-02T12:09:32;11;11;
77892;PMS5003;67087;50.094;14.338;2023-05-02T12:11:57;11;11;
77892;PMS5003;67087;50.094;14.338;2023-05-02T12:14:26;11;11;
77892;PMS5003;67087;50.094;14.338;2023-05-02T12:16:48;11;11;
77892;PMS5003;67087;50.094;14.338;2023-05-02T12:19:13;10;10;
77892;PMS5003;67087;50.094;14.338;2023-05-02T12:21:38;13;12;
77892;PMS5003;67087;50.094;14.338;2023-05-02T12:24:04;11;10;
77892;PMS5003;67087;50.094;14.338;2023-05-02T12:26:29;12;11;
77892;PMS5003;67087;50.094;14.338;2023-05-02T12:28:54;15;13;
77892;PMS5003;67087;50.094;14.338;2023-05-02T12:31:20;11;11;
77892;PMS5003;67087;50.094;14.338;2023-05-02T12:33:45;10;10;
77892;PMS5003;67087;50.094;14.338;2023-05-02T12:36:10;9;9;
77892;PMS5003;67087;50.094;14.338;2023-05-02T12:38:35;12;12;
77892;PMS5003;67087;50.094;14.338;2023-05-02T12:41:01;11;10;
77892;PMS5003;67087;50.094;14.338;2023-05-02T12:43:26;10;10;
77892;PMS5003;67087;50.094;14.338;2023-05-02T12:48:17;11;11;
77892;PMS5003;67087;50.094;14.338;2023-05-02T12:50:42;12;12;
77892;PMS5003;67087;50.094;14.338;2023-05-02T12:53:07;12;11;
77892;PMS5003;67087;50.094;14.338;2023-05-02T12:55:33;12;12;
77892;PMS5003;67087;50.094;14.338;2023-05-02T12:57:59;8;8;
77892;PMS5003;67087;50.094;14.338;2023-05-02T13:00:24;13;10;
77892;PMS5003;67087;50.094;14.338;2023-05-02T13:02:49;11;11;
77892;PMS5003;67087;50.094;14.338;2023-05-02T13:05:15;12;11;
77892;PMS5003;67087;50.094;14.338;2023-05-02T13:07:40;12;11;
77892;PMS5003;67087;50.094;14.338;2023-05-02T13:10:06;13;12;
77892;PMS5003;67087;50.094;14.338;2023-05-02T13:12:32;10;10;
77892;PMS5003;67087;50.094;14.338;2023-05-02T13:14:57;12;12;
77892;PMS5003;67087;50.094;14.338;2023-05-02T13:17:22;12;11;
77892;PMS5003;67087;50.094;14.338;2023-05-02T13:19:47;13;13;
77892;PMS5003;67087;50.094;14.338;2023-05-02T13:22:12;11;11;
77892;PMS5003;67087;50.094;14.338;2023-05-02T13:24:38;9;9;
77892;PMS5003;67087;50.094;14.338;2023-05-02T13:27:03;11;10;
77892;PMS5003;67087;50.094;14.338;2023-05-02T13:29:28;12;12;
77892;PMS5003;67087;50.094;14.338;2023-05-02T13:31:53;11;11;
77892;PMS5003;67087;50.094;14.338;2023-05-02T13:34:18;11;11;
77892;PMS5003;67087;50.094;14.338;2023-05-02T13:36:43;10;10;
77892;PMS5003;67087;50.094;14.338;2023-05-02T13:39:09;9;9;
77892;PMS5003;67087;50.094;14.338;2023-05-02T13:41:34;9;9;
77892;PMS5003;67087;50.094;14.338;2023-05-02T13:43:59;9;9;
77892;PMS5003;67087;50.094;14.338;2023-05-02T13:46:25;11;11;
77892;PMS5003;67087;50.094;14.338;2023-05-02T13:48:50;10;10;
77892;PMS5003;67087;50.094;14.338;2023-05-02T13:51:15;10;10;
77892;PMS5003;67087;50.094;14.338;2023-05-02T13:53:40;10;9;
77892;PMS5003;67087;50.094;14.338;2023-05-02T13:56:05;9;9;
77892;PMS5003;67087;50.094;14.338;2023-05-02T13:58:30;9;9;
77892;PMS5003;67087;50.094;14.338;2023-05-02T14:00:56;10;10;
77892;PMS5003;67087;50.094;14.338;2023-05-02T14:03:21;9;9;
77892;PMS5003;67087;50.094;14.338;2023-05-02T14:05:46;11;11;
77892;PMS5003;67087;50.094;14.338;2023-05-02T14:08:12;10;10;
77892;PMS5003;67087;50.094;14.338;2023-05-02T14:10:37;8;8;
77892;PMS5003;67087;50.094;14.338;2023-05-02T14:13:02;10;10;
77892;PMS5003;67087;50.094;14.338;2023-05-02T14:15:27;9;9;
77892;PMS5003;67087;50.094;14.338;2023-05-02T14:17:52;9;9;
77892;PMS5003;67087;50.094;14.338;2023-05-02T14:20:17;11;11;
77892;PMS5003;67087;50.094;14.338;2023-05-02T14:22:43;11;10;
77892;PMS5003;67087;50.094;14.338;2023-05-02T14:25:08;9;9;
77892;PMS5003;67087;50.094;14.338;2023-05-02T14:27:33;12;12;
77892;PMS5003;67087;50.094;14.338;2023-05-02T14:29:58;11;10;
77892;PMS5003;67087;50.094;14.338;2023-05-02T14:32:23;12;11;
77892;PMS5003;67087;50.094;14.338;2023-05-02T14:34:48;13;13;
77892;PMS5003;67087;50.094;14.338;2023-05-02T14:37:13;12;11;
77892;PMS5003;67087;50.094;14.338;2023-05-02T14:39:39;11;11;
77892;PMS5003;67087;50.094;14.338;2023-05-02T14:42:04;13;12;
77892;PMS5003;67087;50.094;14.338;2023-05-02T14:44:29;11;11;
77892;PMS5003;67087;50.094;14.338;2023-05-02T14:46:54;13;13;
77892;PMS5003;67087;50.094;14.338;2023-05-02T14:49:19;11;10;
77892;PMS5003;67087;50.094;14.338;2023-05-02T14:51:45;11;11;
77892;PMS5003;67087;50.094;14.338;2023-05-02T14:54:10;11;11;
77892;PMS5003;67087;50.094;14.338;2023-05-02T14:56:35;9;9;
77892;PMS5003;67087;50.094;14.338;2023-05-02T14:59:00;11;10;
77892;PMS5003;67087;50.094;14.338;2023-05-02T15:01:26;10;10;
77892;PMS5003;67087;50.094;14.338;2023-05-02T15:03:51;13;12;
77892;PMS5003;67087;50.094;14.338;2023-05-02T15:06:16;13;12;
77892;PMS5003;67087;50.094;14.338;2023-05-02T15:08:42;11;11;
77892;PMS5003;67087;50.094;14.338;2023-05-02T15:11:08;11;11;
77892;PMS5003;67087;50.094;14.338;2023-05-02T15:13:33;11;10;
77892;PMS5003;67087;50.094;14.338;2023-05-02T15:15:57;11;11;
77892;PMS5003;67087;50.094;14.338;2023-05-02T15:18:23;13;11;
77892;PMS5003;67087;50.094;14.338;2023-05-02T15:20:48;11;11;
77892;PMS5003;67087;50.094;14.338;2023-05-02T15:23:13;10;10;
77892;PMS5003;67087;50.094;14.338;2023-05-02T15:25:38;12;12;
77892;PMS5003;67087;50.094;14.338;2023-05-02T15:28:03;13;12;
77892;PMS5003;67087;50.094;14.338;2023-05-02T15:30:28;11;11;
77892;PMS5003;67087;50.094;14.338;2023-05-02T15:32:54;12;12;
77892;PMS5003;67087;50.094;14.338;2023-05-02T15:35:19;9;9;
77892;PMS5003;67087;50.094;14.338;2023-05-02T15:37:45;12;12;
77892;PMS5003;67087;50.094;14.338;2023-05-02T15:40:10;12;12;
77892;PMS5003;67087;50.094;14.338;2023-05-02T15:42:35;11;11;
77892;PMS5003;67087;50.094;14.338;2023-05-02T15:45:01;12;11;
77892;PMS5003;67087;50.094;14.338;2023-05-02T15:47:26;13;12;
77892;PMS5003;67087;50.094;14.338;2023-05-02T15:49:51;13;13;
77892;PMS5003;67087;50.094;14.338;2023-05-02T15:52:16;12;12;
77892;PMS5003;67087;50.094;14.338;2023-05-02T15:54:41;8;8;
77892;PMS5003;67087;50.094;14.338;2023-05-02T15:57:07;13;12;
77892;PMS5003;67087;50.094;14.338;2023-05-02T15:59:32;10;10;
77892;PMS5003;67087;50.094;14.338;2023-05-02T16:01:57;11;11;
77892;PMS5003;67087;50.094;14.338;2023-05-02T16:04:22;9;9;
77892;PMS5003;67087;50.094;14.338;2023-05-02T16:06:47;12;12;
77892;PMS5003;67087;50.094;14.338;2023-05-02T16:09:12;11;11;
77892;PMS5003;67087;50.094;14.338;2023-05-02T16:11:37;13;13;
77892;PMS5003;67087;50.094;14.338;2023-05-02T16:14:02;12;12;
77892;PMS5003;67087;50.094;14.338;2023-05-02T16:16:28;12;11;
77892;PMS5003;67087;50.094;14.338;2023-05-02T16:18:53;13;13;